createdAt,value
2018-12-14T00:00:20.578Z,85.20
2018-12-14T00:02:51.971Z,85.20
2018-12-14T00:05:23.102Z,85.20
2018-12-14T00:07:54.388Z,85.30
2018-12-14T00:10:23.820Z,85.30
2018-12-14T00:12:53.187Z,85.60
2018-12-14T00:15:22.730Z,85.50
2018-12-14T00:17:51.988Z,85.60
2018-12-14T00:20:21.308Z,85.90
2018-12-14T00:22:50.601Z,85.80
2018-12-14T00:25:19.792Z,86.00
2018-12-14T00:27:49.057Z,86.10
2018-12-14T00:30:18.479Z,86.40
2018-12-14T00:32:47.888Z,86.50
2018-12-14T00:35:17.473Z,86.60
2018-12-14T00:37:46.855Z,86.60
2018-12-14T00:40:16.121Z,86.60
2018-12-14T00:42:45.334Z,86.60
2018-12-14T00:45:14.680Z,86.70
2018-12-14T00:47:45.060Z,87.70
2018-12-14T00:50:14.517Z,87.40
2018-12-14T00:52:43.940Z,86.90
2018-12-14T00:55:13.407Z,87.00
2018-12-14T00:57:42.758Z,87.00
2018-12-14T01:00:12.251Z,87.00
2018-12-14T01:02:42.413Z,87.00
2018-12-14T01:05:12.571Z,87.10
2018-12-14T01:07:41.954Z,87.00
2018-12-14T01:10:11.191Z,87.00
2018-12-14T01:12:40.580Z,87.10
2018-12-14T01:15:09.939Z,86.80
2018-12-14T01:17:39.341Z,87.00
2018-12-14T01:20:09.691Z,86.90
2018-12-14T01:22:39.020Z,86.80
2018-12-14T01:25:10.412Z,86.60
2018-12-14T01:27:40.799Z,87.00
2018-12-14T01:30:10.217Z,87.00
2018-12-14T01:32:39.635Z,87.10
2018-12-14T01:35:09.072Z,87.30
2018-12-14T01:37:38.412Z,87.20
2018-12-14T01:40:08.293Z,87.20
2018-12-14T01:42:37.756Z,87.20
2018-12-14T01:45:07.073Z,87.10
2018-12-14T01:47:36.356Z,87.00
2018-12-14T01:50:06.331Z,87.00
2018-12-14T01:52:35.934Z,86.90
2018-12-14T01:55:05.523Z,87.00
2018-12-14T01:57:35.194Z,87.10
2018-12-14T02:00:05.167Z,87.10
2018-12-14T02:02:34.497Z,87.00
2018-12-14T02:05:04.696Z,87.00
2018-12-14T02:07:35.193Z,87.00
2018-12-14T02:10:05.032Z,86.90
2018-12-14T02:12:34.392Z,87.10
2018-12-14T02:15:03.752Z,86.90
2018-12-14T02:17:32.985Z,87.00
2018-12-14T02:20:02.368Z,87.10
2018-12-14T02:22:31.785Z,87.10
2018-12-14T02:25:01.222Z,87.20
2018-12-14T02:27:30.546Z,87.30
2018-12-14T02:30:06.146Z,87.60
2018-12-14T02:32:35.376Z,87.40
2018-12-14T02:35:04.820Z,87.30
2018-12-14T02:37:34.083Z,88.10
2018-12-14T02:40:03.321Z,87.30
2018-12-14T02:42:32.522Z,87.50
2018-12-14T02:45:01.999Z,87.50
2018-12-14T02:47:31.269Z,87.70
2018-12-14T02:50:00.955Z,87.80
2018-12-14T02:52:30.209Z,88.30
2018-12-14T02:54:59.497Z,88.30
2018-12-14T02:57:28.815Z,88.30
2018-12-14T02:59:58.083Z,89.20
2018-12-14T03:02:27.326Z,88.60
2018-12-14T03:04:56.728Z,88.70
2018-12-14T03:07:25.970Z,88.70
2018-12-14T03:09:55.220Z,88.70
2018-12-14T03:12:26.890Z,88.90
2018-12-14T03:14:55.636Z,89.00
2018-12-14T03:17:25.128Z,88.60
2018-12-14T03:19:54.569Z,89.20
2018-12-14T03:22:24.414Z,89.20
2018-12-14T03:24:53.958Z,89.30
2018-12-14T03:27:23.315Z,89.10
2018-12-14T03:29:52.599Z,89.30
2018-12-14T03:32:21.894Z,89.10
2018-12-14T03:34:51.132Z,89.10
2018-12-14T03:37:20.464Z,89.20
2018-12-14T03:39:49.740Z,89.10
2018-12-14T03:42:19.095Z,89.10
2018-12-14T03:44:48.469Z,89.00
2018-12-14T03:47:17.749Z,89.00
2018-12-14T03:49:47.050Z,88.50
2018-12-14T03:52:16.315Z,88.70
2018-12-14T03:54:47.023Z,88.80
2018-12-14T03:57:16.370Z,88.90
2018-12-14T03:59:45.885Z,88.90
2018-12-14T04:02:15.494Z,88.90
2018-12-14T04:04:44.810Z,89.00
2018-12-14T04:07:14.074Z,88.70
2018-12-14T04:09:43.360Z,88.70
2018-12-14T04:12:12.658Z,88.70
2018-12-14T04:14:41.890Z,88.70
2018-12-14T04:17:11.110Z,88.30
2018-12-14T04:19:40.573Z,88.40
2018-12-14T04:22:10.794Z,89.00
2018-12-14T04:24:40.026Z,88.10
2018-12-14T04:27:09.332Z,88.20
2018-12-14T04:29:38.581Z,88.00
2018-12-14T04:32:07.892Z,87.70
2018-12-14T04:34:37.237Z,87.50
2018-12-14T04:37:06.521Z,87.60
2018-12-14T04:39:35.786Z,87.60
2018-12-14T04:42:05.098Z,87.90
2018-12-14T04:44:34.333Z,87.30
2018-12-14T04:47:03.753Z,87.30
2018-12-14T04:49:33.285Z,87.30
2018-12-14T04:52:06.825Z,87.20
2018-12-14T04:54:36.083Z,88.00
2018-12-14T04:57:05.488Z,87.00
2018-12-14T04:59:36.545Z,87.00
2018-12-14T05:02:05.804Z,87.00
2018-12-14T05:04:35.077Z,86.80
2018-12-14T05:07:04.438Z,86.90
2018-12-14T05:09:33.891Z,86.90
2018-12-14T05:12:03.114Z,87.00
2018-12-14T05:14:32.401Z,87.00
2018-12-14T05:17:01.654Z,86.90
2018-12-14T05:19:30.921Z,86.80
2018-12-14T05:22:00.191Z,86.90
2018-12-14T05:24:29.534Z,86.80
2018-12-14T05:26:59.201Z,86.90
2018-12-14T05:29:28.499Z,87.10
2018-12-14T05:31:57.813Z,88.10
2018-12-14T05:34:27.122Z,87.30
2018-12-14T05:36:56.472Z,87.60
2018-12-14T05:39:25.751Z,87.70
2018-12-14T05:41:55.204Z,88.10
2018-12-14T05:44:24.943Z,88.30
2018-12-14T05:46:54.375Z,88.20
2018-12-14T05:49:23.739Z,88.70
2018-12-14T05:51:55.025Z,87.80
2018-12-14T05:54:24.392Z,88.00
2018-12-14T05:56:53.865Z,88.00
2018-12-14T05:59:23.305Z,87.90
2018-12-14T06:01:52.605Z,88.00
2018-12-14T06:04:22.066Z,88.00
2018-12-14T06:06:51.391Z,87.80
2018-12-14T06:09:20.655Z,88.00
2018-12-14T06:11:49.952Z,87.70
2018-12-14T06:14:19.471Z,87.80
2018-12-14T06:16:48.712Z,87.90
2018-12-14T06:19:18.092Z,87.80
2018-12-14T06:21:47.331Z,87.80
2018-12-14T06:24:16.693Z,87.80
2018-12-14T06:26:46.113Z,87.80
2018-12-14T06:29:15.455Z,87.80
2018-12-14T06:31:44.835Z,87.80
2018-12-14T06:34:14.072Z,87.80
2018-12-14T06:36:43.415Z,87.90
2018-12-14T06:39:12.771Z,88.10
2018-12-14T06:41:42.673Z,88.10
2018-12-14T06:44:12.265Z,88.30
2018-12-14T06:46:41.597Z,88.10
2018-12-14T06:49:13.962Z,88.30
2018-12-14T06:51:43.233Z,88.30
2018-12-14T06:54:12.802Z,88.60
2018-12-14T06:56:42.210Z,88.40
2018-12-14T06:59:11.642Z,88.60
2018-12-14T07:01:40.941Z,89.40
2018-12-14T07:04:10.441Z,88.80
2018-12-14T07:06:39.819Z,89.20
2018-12-14T07:09:09.159Z,89.00
2018-12-14T07:11:39.556Z,89.10
2018-12-14T07:14:08.887Z,89.10
2018-12-14T07:16:38.232Z,89.40
2018-12-14T07:19:07.876Z,89.20
2018-12-14T07:21:37.142Z,89.10
2018-12-14T07:24:06.600Z,89.00
2018-12-14T07:26:36.176Z,88.90
2018-12-14T07:29:05.819Z,89.00
2018-12-14T07:31:38.360Z,89.00
2018-12-14T07:34:07.788Z,89.00
2018-12-14T07:36:37.688Z,89.30
2018-12-14T07:39:07.419Z,89.20
2018-12-14T07:41:37.466Z,89.40
2018-12-14T07:44:06.838Z,89.80
2018-12-14T07:46:36.114Z,89.90
2018-12-14T07:49:06.623Z,89.90
2018-12-14T07:51:36.021Z,90.00
2018-12-14T07:54:05.333Z,90.00
2018-12-14T07:56:35.024Z,89.70
2018-12-14T07:59:04.613Z,89.80
2018-12-14T08:01:33.991Z,89.80
2018-12-14T08:04:03.336Z,89.90
2018-12-14T08:06:32.780Z,90.00
2018-12-14T08:09:02.198Z,90.20
2018-12-14T08:11:33.527Z,90.30
2018-12-14T08:14:02.744Z,90.40
2018-12-14T08:16:32.267Z,90.30
2018-12-14T08:19:01.672Z,90.00
2018-12-14T08:21:31.011Z,90.20
2018-12-14T08:24:00.363Z,90.30
2018-12-14T08:26:29.878Z,90.30
2018-12-14T08:28:59.232Z,90.40
2018-12-14T08:31:28.672Z,90.70
2018-12-14T08:33:58.103Z,90.40
2018-12-14T08:36:27.508Z,90.40
2018-12-14T08:38:56.876Z,90.50
2018-12-14T08:41:26.127Z,90.40
2018-12-14T08:43:55.595Z,90.40
2018-12-14T08:46:25.015Z,90.50
2018-12-14T08:48:54.469Z,90.50
2018-12-14T08:51:23.880Z,90.50
2018-12-14T08:53:53.377Z,90.60
2018-12-14T08:56:22.791Z,90.60
2018-12-14T08:58:52.131Z,90.80
2018-12-14T09:01:23.011Z,90.90
2018-12-14T09:03:52.271Z,91.10
2018-12-14T09:06:21.632Z,91.60
2018-12-14T09:08:52.122Z,91.60
2018-12-14T09:11:21.560Z,91.30
2018-12-14T09:13:50.802Z,91.30
2018-12-14T09:16:20.182Z,91.40
2018-12-14T09:18:49.612Z,91.50
2018-12-14T09:21:18.928Z,91.50
2018-12-14T09:23:48.534Z,91.80
2018-12-14T09:26:18.034Z,91.80
2018-12-14T09:28:47.641Z,91.90
2018-12-14T09:31:17.799Z,91.90
2018-12-14T09:33:47.199Z,91.90
2018-12-14T09:36:16.687Z,91.80
2018-12-14T09:38:46.563Z,91.90
2018-12-14T09:41:17.036Z,92.00
2018-12-14T09:43:46.303Z,92.00
2018-12-14T09:46:15.741Z,91.90
2018-12-14T09:48:44.982Z,91.80
2018-12-14T09:51:14.463Z,91.70
2018-12-14T09:53:43.890Z,91.70
2018-12-14T09:56:13.313Z,91.50
2018-12-14T09:58:42.978Z,91.60
2018-12-14T10:01:12.490Z,91.80
2018-12-14T10:03:42.111Z,91.80
2018-12-14T10:06:15.666Z,91.70
2018-12-14T10:08:42.976Z,91.50
2018-12-14T10:11:12.443Z,91.50
2018-12-14T10:13:41.732Z,91.70
2018-12-14T10:16:26.292Z,91.80
2018-12-14T10:18:58.487Z,92.00
2018-12-14T10:21:28.293Z,92.10
2018-12-14T10:23:57.658Z,92.00
2018-12-14T10:26:27.285Z,91.70
2018-12-14T10:28:56.605Z,91.70
2018-12-14T10:31:25.898Z,91.70
2018-12-14T10:33:55.200Z,91.80
2018-12-14T10:36:24.523Z,91.70
2018-12-14T10:38:54.302Z,91.70
2018-12-14T10:41:24.213Z,91.80
2018-12-14T10:43:53.672Z,91.50
2018-12-14T10:46:23.059Z,91.50
2018-12-14T10:48:52.727Z,91.50
2018-12-14T10:51:22.223Z,91.50
2018-12-14T10:53:51.733Z,91.60
2018-12-14T10:56:21.802Z,91.50
2018-12-14T10:58:51.194Z,91.70
2018-12-14T11:01:24.915Z,91.70
2018-12-14T11:03:54.237Z,91.80
2018-12-14T11:06:24.270Z,91.90
2018-12-14T11:08:53.640Z,92.00
2018-12-14T11:11:23.034Z,91.90
2018-12-14T11:13:52.319Z,91.70
2018-12-14T11:16:21.658Z,91.70
2018-12-14T11:18:51.063Z,91.70
2018-12-14T11:21:20.325Z,91.60
2018-12-14T11:23:49.692Z,91.50
2018-12-14T11:26:19.065Z,91.60
2018-12-14T11:28:48.318Z,91.60
2018-12-14T11:31:17.631Z,91.40
2018-12-14T11:33:47.090Z,91.00
2018-12-14T11:36:16.465Z,90.90
2018-12-14T11:38:45.831Z,90.90
2018-12-14T11:41:18.442Z,90.60
2018-12-14T11:43:46.671Z,90.70
2018-12-14T11:46:16.111Z,91.10
2018-12-14T11:48:45.513Z,90.90
2018-12-14T11:51:18.811Z,90.80
2018-12-14T11:53:48.177Z,90.90
2018-12-14T11:56:17.663Z,90.70
2018-12-14T11:58:47.098Z,90.70
2018-12-14T12:01:16.395Z,90.70
2018-12-14T12:03:48.714Z,90.70
2018-12-14T12:06:18.139Z,90.80
2018-12-14T12:08:47.377Z,90.90
2018-12-14T12:11:16.693Z,91.00
2018-12-14T12:13:46.041Z,91.30
2018-12-14T12:16:15.310Z,91.00
2018-12-14T12:18:44.641Z,91.00
2018-12-14T12:21:13.931Z,90.90
2018-12-14T12:23:43.344Z,91.00
2018-12-14T12:26:12.715Z,91.10
2018-12-14T12:28:42.467Z,91.20
2018-12-14T12:31:11.779Z,91.20
2018-12-14T12:33:41.340Z,91.20
2018-12-14T12:36:10.792Z,91.30
2018-12-14T12:38:40.154Z,91.20
2018-12-14T12:41:09.792Z,91.60
2018-12-14T12:43:39.252Z,91.30
2018-12-14T12:46:09.571Z,91.20
2018-12-14T12:48:39.926Z,91.40
2018-12-14T12:51:09.310Z,91.40
2018-12-14T12:53:38.615Z,91.80
2018-12-14T12:56:08.593Z,91.40
2018-12-14T12:58:37.933Z,91.40
2018-12-14T13:01:07.305Z,91.50
2018-12-14T13:03:36.672Z,91.50
2018-12-14T13:06:05.971Z,91.60
2018-12-14T13:08:35.451Z,91.50
2018-12-14T13:11:04.770Z,91.60
2018-12-14T13:13:34.359Z,91.60
2018-12-14T13:16:03.690Z,91.40
2018-12-14T13:18:34.332Z,91.50
2018-12-14T13:21:03.637Z,91.50
2018-12-14T13:23:32.978Z,91.50
2018-12-14T13:26:02.430Z,91.60
2018-12-14T13:28:32.014Z,91.60
2018-12-14T13:31:01.383Z,91.60
2018-12-14T13:33:30.891Z,91.70
2018-12-14T13:36:00.281Z,91.60
2018-12-14T13:38:29.659Z,91.60
2018-12-14T13:40:59.846Z,91.50
2018-12-14T13:43:29.221Z,91.60
2018-12-14T13:45:58.599Z,91.60
2018-12-14T13:48:27.995Z,91.70
2018-12-14T13:50:58.507Z,91.70
2018-12-14T13:53:27.912Z,91.80
2018-12-14T13:55:57.231Z,91.90
2018-12-14T13:58:26.615Z,91.80
2018-12-14T14:00:56.137Z,92.20
2018-12-14T14:03:26.438Z,91.90
2018-12-14T14:05:55.779Z,91.90
2018-12-14T14:08:25.230Z,92.00
2018-12-14T14:10:54.546Z,92.00
2018-12-14T14:13:23.847Z,92.10
2018-12-14T14:15:53.619Z,92.20
2018-12-14T14:18:23.949Z,92.30
2018-12-14T14:20:57.365Z,92.50
2018-12-14T14:23:27.429Z,92.60
2018-12-14T14:26:01.145Z,92.60
2018-12-14T14:28:30.705Z,92.60
2018-12-14T14:31:00.060Z,92.60
2018-12-14T14:33:29.418Z,92.60
2018-12-14T14:35:58.703Z,92.50
2018-12-14T14:38:30.972Z,92.60
2018-12-14T14:41:00.334Z,92.80
2018-12-14T14:43:30.461Z,93.00
2018-12-14T14:45:59.771Z,93.00
2018-12-14T14:48:29.138Z,93.00
2018-12-14T14:50:58.545Z,93.30
2018-12-14T14:53:27.904Z,92.90
2018-12-14T14:55:57.394Z,92.90
2018-12-14T14:58:26.841Z,92.90
2018-12-14T15:00:56.171Z,92.80
2018-12-14T15:03:25.729Z,92.80
2018-12-14T15:05:55.019Z,93.20
2018-12-14T15:08:24.365Z,92.90
2018-12-14T15:10:53.726Z,92.90
2018-12-14T15:13:26.398Z,93.00
2018-12-14T15:15:55.853Z,93.00
2018-12-14T15:18:25.200Z,93.00
2018-12-14T15:20:54.592Z,93.00
2018-12-14T15:23:24.047Z,93.00
2018-12-14T15:25:53.575Z,93.00
2018-12-14T15:28:22.951Z,93.00
2018-12-14T15:30:52.309Z,93.00
2018-12-14T15:33:21.590Z,93.00
2018-12-14T15:35:50.896Z,93.00
2018-12-14T15:38:20.351Z,93.00
2018-12-14T15:40:49.741Z,93.00
2018-12-14T15:43:18.943Z,93.40
2018-12-14T15:45:48.371Z,93.10
2018-12-14T15:48:17.745Z,93.10
2018-12-14T15:50:47.046Z,93.10
2018-12-14T15:53:18.320Z,93.10
2018-12-14T15:55:47.877Z,93.00
2018-12-14T15:58:17.078Z,93.10
2018-12-14T16:00:46.471Z,93.50
2018-12-14T16:03:15.731Z,93.20
2018-12-14T16:05:45.088Z,93.20
2018-12-14T16:08:14.482Z,93.10
2018-12-14T16:10:43.847Z,93.20
2018-12-14T16:13:13.299Z,93.20
2018-12-14T16:15:42.639Z,93.10
2018-12-14T16:18:12.155Z,93.10
2018-12-14T16:20:41.504Z,93.10
2018-12-14T16:23:10.885Z,93.10
2018-12-14T16:25:40.338Z,93.10
2018-12-14T16:28:09.642Z,93.10
2018-12-14T16:30:39.991Z,93.10
2018-12-14T16:33:09.393Z,93.10
2018-12-14T16:39:52.282Z,93.10
2018-12-14T16:42:52.789Z,93.10
2018-12-14T16:45:33.177Z,93.10
2018-12-14T16:48:11.155Z,93.00
2018-12-14T16:50:41.401Z,93.00
2018-12-14T16:53:18.216Z,93.10
2018-12-14T16:56:05.841Z,93.10
2018-12-14T16:58:44.342Z,93.20
2018-12-14T17:01:21.989Z,93.20
2018-12-14T17:04:07.709Z,93.30
2018-12-14T17:06:39.815Z,93.30
2018-12-14T17:09:43.525Z,93.30
2018-12-14T17:12:18.987Z,93.30
2018-12-14T17:14:49.266Z,93.30
2018-12-14T17:17:18.554Z,93.30
2018-12-14T17:19:47.872Z,93.60
2018-12-14T17:22:19.966Z,93.30
2018-12-14T17:24:49.291Z,93.30
2018-12-14T17:27:18.513Z,93.40
2018-12-14T17:29:49.179Z,93.40
2018-12-14T17:32:18.570Z,93.30
2018-12-14T17:34:50.531Z,93.20
2018-12-14T17:37:21.033Z,93.20
2018-12-14T17:39:53.884Z,93.20
2018-12-14T17:42:25.679Z,93.20
2018-12-14T17:45:08.086Z,93.30
2018-12-14T17:47:40.404Z,93.30
2018-12-14T17:50:12.131Z,93.30
2018-12-14T17:52:42.465Z,93.30
2018-12-14T17:55:45.254Z,93.30
2018-12-14T17:58:24.956Z,93.30
2018-12-14T18:00:58.634Z,93.30
2018-12-14T18:03:29.281Z,93.30
2018-12-14T18:06:30.215Z,93.30
2018-12-14T18:09:20.711Z,93.40
2018-12-14T18:12:12.738Z,93.30
2018-12-14T18:15:08.585Z,93.30
2018-12-14T18:18:31.397Z,93.20
2018-12-14T18:21:17.937Z,93.20
2018-12-14T18:24:04.948Z,93.50
2018-12-14T18:27:16.310Z,93.20
2018-12-14T18:30:26.085Z,93.20
2018-12-14T18:33:19.129Z,93.20
2018-12-14T18:35:52.364Z,93.20
2018-12-14T18:42:02.234Z,93.10
2018-12-14T18:44:37.998Z,93.10
2018-12-14T18:47:08.405Z,93.10
2018-12-14T18:49:38.626Z,93.10
2018-12-14T18:52:07.975Z,93.10
2018-12-14T18:54:41.178Z,93.20
2018-12-14T18:57:24.553Z,93.20
2018-12-14T19:00:24.154Z,93.20
2018-12-14T19:02:57.781Z,93.20
2018-12-14T19:05:27.188Z,93.20
2018-12-14T19:07:56.797Z,93.20
2018-12-14T19:10:26.092Z,93.30
2018-12-14T19:12:55.475Z,93.20
2018-12-14T19:15:30.652Z,93.30
2018-12-14T19:18:06.309Z,93.20
2018-12-14T19:20:41.616Z,93.10
2018-12-14T19:23:12.073Z,93.20
2018-12-14T19:25:41.668Z,93.10
2018-12-14T19:28:10.879Z,93.10
2018-12-14T19:30:40.160Z,93.10
2018-12-14T19:33:09.564Z,93.10
2018-12-14T19:35:39.390Z,93.00
2018-12-14T19:38:08.772Z,92.80
2018-12-14T19:50:30.602Z,93.00
2018-12-14T19:56:39.327Z,93.10
2018-12-14T19:59:10.355Z,93.20
2018-12-14T20:01:39.666Z,93.20
2018-12-14T20:07:02.445Z,93.20
2018-12-14T20:18:05.171Z,93.20
2018-12-14T20:20:54.991Z,93.20
2018-12-14T20:23:24.283Z,93.20
2018-12-14T20:25:58.936Z,93.20
2018-12-14T20:28:32.743Z,93.30
2018-12-14T20:31:03.214Z,93.30
2018-12-14T20:33:35.318Z,93.40
2018-12-14T20:36:04.849Z,93.30
2018-12-14T20:38:34.304Z,93.40
2018-12-14T20:41:03.670Z,93.30
2018-12-14T20:43:33.063Z,93.40
2018-12-14T20:46:03.974Z,93.40
2018-12-14T20:48:33.692Z,93.40
2018-12-14T20:51:10.308Z,93.40
2018-12-14T20:53:39.752Z,93.40
2018-12-14T20:56:51.767Z,93.40
2018-12-14T21:06:53.793Z,93.40
2018-12-14T21:09:29.705Z,93.30
2018-12-14T21:20:45.013Z,93.20
2018-12-14T21:24:26.374Z,93.20
2018-12-14T21:33:38.021Z,93.20
2018-12-14T21:36:55.491Z,93.20
2018-12-14T21:46:32.730Z,93.10
2018-12-14T21:59:21.661Z,93.20
2018-12-14T22:01:54.917Z,93.20
2018-12-14T22:04:24.498Z,93.30
2018-12-14T22:06:54.120Z,93.20
2018-12-14T22:09:42.224Z,93.30
2018-12-14T22:23:07.312Z,93.30
2018-12-14T22:25:36.702Z,93.30
2018-12-14T22:28:35.783Z,93.30
2018-12-14T22:31:05.120Z,93.40
2018-12-14T22:33:47.604Z,93.40
2018-12-14T22:36:16.944Z,93.20
2018-12-14T22:38:49.803Z,93.30
2018-12-14T22:41:19.283Z,93.20
2018-12-14T22:43:48.792Z,93.30
2018-12-14T22:46:18.123Z,93.30
2018-12-14T22:48:47.430Z,93.40
2018-12-14T22:51:16.750Z,93.20
2018-12-14T22:53:46.192Z,93.30
2018-12-14T22:56:15.574Z,93.40
2018-12-14T22:58:45.295Z,93.50
2018-12-14T23:01:16.792Z,93.40
2018-12-14T23:03:46.632Z,93.50
2018-12-14T23:06:17.253Z,93.60
2018-12-14T23:08:52.523Z,93.60
2018-12-14T23:11:27.757Z,93.70
2018-12-14T23:14:03.166Z,93.60
2018-12-14T23:16:32.562Z,93.60
2018-12-14T23:19:01.951Z,93.60
2018-12-14T23:21:31.465Z,93.60
2018-12-14T23:24:00.973Z,93.90
2018-12-14T23:26:35.971Z,93.60
2018-12-14T23:29:05.332Z,93.60
2018-12-14T23:31:34.851Z,93.60
2018-12-14T23:34:04.160Z,93.60
2018-12-14T23:36:33.619Z,93.60
2018-12-14T23:39:03.670Z,93.60
2018-12-14T23:41:34.979Z,93.60
2018-12-14T23:44:04.306Z,93.70
2018-12-14T23:46:42.680Z,93.60
2018-12-14T23:49:17.382Z,93.60
2018-12-14T23:51:55.496Z,93.60
2018-12-14T23:54:26.007Z,93.60
2018-12-14T23:57:04.457Z,93.60
2018-12-14T23:59:37.720Z,93.60
